AirBox status report


DeploymentNumber of DevicesDetailAvg. TemperatureAvg. HumidityAvg. PM2.5Version
1 Edimax AirBox (Taipei) [14.84% (23/155)] [HTML] [JSON] [Dataset A]27.14℃ 90.52% 28.09 μg/m3 2018-10-18T18:21:55Z
2 Edimax AirBox (New Taipei) [35.23% (105/298)] [HTML] [JSON] [Dataset B]26.17℃ 90.3% 28.54 μg/m3 2018-10-18T18:21:55Z
3 Edimax AirBox (Taoyuan) [23.83% (56/235)] [HTML] [JSON] [Dataset A]25.95℃ 83.11% 35.41 μg/m3 2018-10-18T18:21:55Z
4 Edimax AirBox (Taichung) [62.5% (145/232)] [HTML] [JSON] [Dataset B]28.34℃ 88.02% 33.79 μg/m3 2018-10-18T18:21:55Z
5 Edimax AirBox (Tainan) [50.47% (108/214)] [HTML] [JSON] [Dataset B]29.46℃ 90.58% 43.12 μg/m3 2018-10-18T18:21:55Z
6 Edimax AirBox (Kaohsiung) [59.92% (145/242)] [HTML] [JSON] [Dataset B]30.53℃ 94.52% 40.28 μg/m3 2018-10-18T18:21:55Z
7 Edimax AirBox (Korea) 100% (927/927) [HTML] [JSON] [Dataset Z]16.35℃ 72.48% 5.55 μg/m3 2018-10-18T18:21:57Z
8 Edimax AirBox (LASS) [10.81% (8/74)] [HTML] [JSON] [Dataset A]29.86℃ 83.88% 31.13 μg/m3 2018-10-18T18:21:57Z
9 Edimax AirBox (TaichungZero) [56.08% (83/148)] [HTML] [JSON] [Dataset A]28.32℃ 85.65% 35.71 μg/m3 2018-10-18T18:21:57Z
10 Edimax AirBox (TaoyuanFirst) [33.33% (9/27)] [HTML] [JSON] [Dataset A]24.83℃ 82.44% 32.78 μg/m3 2018-10-18T18:21:57Z
11 Edimax AirBox (other) 100% (771/771) [HTML] [JSON] [Dataset A]26.25℃ 71% 28 μg/m3 2018-10-18T18:21:57Z
12 LASS AirBox (Hsinchu) [56% (28/50)] [HTML] [JSON] [Dataset A]27.19℃ 77.36% 30.04 μg/m3 2018-10-18T18:21:55Z
13 LASS AirBox (Yunlin) [37.31% (72/193)] [HTML] [JSON] [Dataset A]28.55℃ 84.6% 42.58 μg/m3 2018-10-18T18:21:55Z
14 LASS AirBox (Chiayi) [41.18% (21/51)] [HTML] [JSON] [Dataset A]29.28℃ 81.57% 49.81 μg/m3 2018-10-18T18:21:55Z
15 LASS AirBox (Chiayi County) [36.67% (66/180)] [HTML] [JSON] [Dataset A]27.95℃ 84.42% 45.76 μg/m3 2018-10-18T18:21:56Z
16 LASS AirBox (Kinmen) [16.67% (4/24)] [HTML] [JSON] [Dataset A]25.5℃ 80.25% 46.25 μg/m3 2018-10-18T18:21:56Z
17 LASS AirBox (Hsinchu County) [25.93% (35/135)] [HTML] [JSON] [Dataset A]25.67℃ 63.97% 28.74 μg/m3 2018-10-18T18:21:56Z
18 LASS AirBox (Yilan) [12.15% (13/107)] [HTML] [JSON] [Dataset A]21.66℃ 76.77% 37.85 μg/m3 2018-10-18T18:21:56Z
19 LASS AirBox (Hualien) [2.38% (3/126)] [HTML] [JSON] [Dataset A]25.54℃ 79.33% 28.33 μg/m3 2018-10-18T18:21:56Z
20 LASS AirBox (Pingtung) [42.17% (97/230)] [HTML] [JSON] [Dataset A]28.72℃ 78.24% 40.26 μg/m3 2018-10-18T18:21:56Z
21 LASS AirBox (Penghu) [29.41% (15/51)] [HTML] [JSON] [Dataset A]27.32℃ 72.67% 34.53 μg/m3 2018-10-18T18:21:56Z
22 LASS AirBox (Keelung) [17.86% (10/56)] [HTML] [JSON] [Dataset A]25.51℃ 65.4% 40.7 μg/m3 2018-10-18T18:21:56Z
23 LASS AirBox (Taitung) [33.9% (40/118)] [HTML] [JSON] [Dataset A]25.13℃ 75.78% 24.53 μg/m3 2018-10-18T18:21:56Z
24 LASS AirBox (Miaoli) [57.72% (86/149)] [HTML] [JSON] [Dataset A]24.93℃ 65.33% 32.35 μg/m3 2018-10-18T18:21:56Z
25 LASS AirBox (Matsu) 0% (0/8) [HTML] [JSON] [Dataset A]0℃ 0% 0 μg/m3 2018-10-18T18:21:57Z
26 LASS (LASS FT) 100% (130/130) [HTML] [JSON] [Dataset C]23.5℃ 65.67% 40.48 μg/m3 2018-10-18T18:21:57Z
27 LASS (LASS4U) 100% (63/63) [HTML] [JSON] [Dataset D]24.43℃ 66.28% 31.81 μg/m3 2018-10-18T18:21:57Z
28 MAPS (WiFi) [2.3% (2/87)] [HTML] [JSON] [Dataset E]-59.61℃ 76.52% 30 μg/m3 2018-10-18T18:21:57Z
29 MAPS (RESCUE_TW) [18.75% (6/32)] [HTML] [JSON] [Dataset K]23.55℃ 51.7% 27 μg/m3 2018-10-18T18:21:57Z
30 MAPS (other) N/A (0/0) [HTML] [JSON] [Dataset E]0℃ 0% 0 μg/m3 2018-10-18T18:21:57Z
31 ASLUNG 100% (47/47) [HTML] [JSON] [Dataset F]20.89℃ 67.15% 54.06 μg/m3 2018-10-18T18:21:57Z
32 *AirQ 100% (149/149) [HTML] [JSON] [Dataset J]0℃ 0% 35.57 μg/m3 2018-10-18T18:21:57Z
33 *AirU 100% (573/573) [HTML] [JSON] [Dataset L]0℃ 0% 20.59 μg/m3 2018-10-18T18:21:57Z
34 ITRI_PM25 N/A (0/0) [HTML] [JSON] [Dataset M]0℃ 0% 0 μg/m3 2018-10-18T18:21:57Z
35 *Asus AirBox 100% (36/36) [HTML] [JSON] [Dataset G]25.68℃ 69.27% 31.25 μg/m3 2018-10-18T18:21:57Z
36 *gov Indie N/A (0/0) [HTML] [JSON] [Dataset H]0℃ 0% 0 μg/m3 2018-10-18T18:21:57Z
37 *ProbeCube 100% (4/4) [HTML] [JSON] [Dataset I]26.38℃ 48.43% 0 μg/m3 2018-10-18T18:21:57Z
38 Total 65.52% (3880/5922)

Resource:

Note: